createdAt,value
2022-12-04T00:01:15.378Z,46.75
2022-12-04T00:03:42.426Z,42.92
2022-12-04T00:06:17.327Z,35.35
2022-12-04T00:08:45.751Z,37.03
2022-12-04T00:11:14.499Z,34.45
2022-12-04T00:13:42.224Z,36.22
2022-12-04T00:16:12.383Z,36.75
2022-12-04T00:18:39.640Z,39.67
2022-12-04T00:21:08.194Z,31.42
2022-12-04T00:23:36.261Z,33.03
2022-12-04T00:26:23.865Z,32.90
2022-12-04T00:28:51.532Z,37.75
2022-12-04T00:31:21.249Z,52.67
2022-12-04T00:33:48.414Z,48.50
2022-12-04T00:36:17.334Z,42.97
2022-12-04T00:38:44.838Z,53.50
2022-12-04T00:41:16.590Z,39.65
2022-12-04T00:43:43.713Z,37.20
2022-12-04T00:46:10.773Z,37.22
2022-12-04T00:48:37.835Z,44.47
2022-12-04T00:51:16.868Z,39.78
2022-12-04T00:53:44.064Z,31.02
2022-12-04T00:56:13.821Z,30.38
2022-12-04T00:58:41.365Z,27.20
2022-12-04T01:01:11.194Z,29.35
2022-12-04T01:03:38.549Z,30.27
2022-12-04T01:06:06.615Z,25.42
2022-12-04T01:08:34.026Z,26.40
2022-12-04T01:11:07.505Z,27.63
2022-12-04T01:13:34.368Z,34.33
2022-12-04T01:16:01.276Z,28.35
2022-12-04T01:18:28.148Z,26.75
2022-12-04T01:20:54.950Z,27.42
2022-12-04T01:23:21.920Z,22.70
2022-12-04T01:25:56.625Z,22.55
2022-12-04T01:28:23.870Z,23.75
2022-12-04T01:31:18.459Z,21.95
2022-12-04T01:33:46.282Z,28.98
2022-12-04T01:36:16.755Z,22.70
2022-12-04T01:38:44.266Z,16.73
2022-12-04T01:41:12.190Z,21.85
2022-12-04T01:43:40.238Z,22.48
2022-12-04T01:46:07.995Z,21.02
2022-12-04T01:48:39.791Z,17.63
2022-12-04T01:51:12.377Z,21.02
2022-12-04T01:53:41.524Z,19.52
2022-12-04T01:56:09.102Z,15.23
2022-12-04T01:58:42.495Z,18.83
2022-12-04T02:01:09.875Z,21.00
2022-12-04T02:03:38.327Z,20.92
2022-12-04T02:06:05.900Z,48.72
2022-12-04T02:08:33.312Z,42.58
2022-12-04T02:11:47.322Z,63.22
2022-12-04T02:14:20.830Z,33.70
2022-12-04T02:17:04.213Z,30.67
2022-12-04T02:19:42.590Z,28.13
2022-12-04T02:22:41.026Z,21.65
2022-12-04T02:25:29.517Z,16.95
2022-12-04T02:28:25.406Z,17.95
2022-12-04T02:30:57.315Z,17.38
2022-12-04T02:33:34.421Z,18.65
2022-12-04T02:36:24.676Z,15.25
2022-12-04T02:39:11.751Z,16.27
2022-12-04T02:41:43.906Z,16.42
2022-12-04T02:44:23.327Z,17.15
2022-12-04T02:46:55.454Z,16.13
2022-12-04T02:49:59.232Z,17.10
2022-12-04T02:52:39.002Z,17.85
2022-12-04T02:55:21.901Z,15.93
2022-12-04T02:57:51.655Z,17.27
2022-12-04T03:00:19.578Z,17.50
2022-12-04T03:02:57.203Z,16.17
2022-12-04T03:05:30.059Z,15.70
2022-12-04T03:07:59.580Z,14.07
2022-12-04T03:10:33.017Z,16.75
2022-12-04T03:13:34.516Z,17.95
2022-12-04T03:16:08.782Z,17.08
2022-12-04T03:18:42.501Z,20.80
2022-12-04T03:21:19.268Z,18.08
2022-12-04T03:23:56.507Z,16.02
2022-12-04T03:26:33.092Z,16.40
2022-12-04T03:29:09.711Z,19.23
2022-12-04T03:31:52.836Z,21.42
2022-12-04T03:36:59.650Z,20.83
2022-12-04T03:39:48.816Z,18.90
2022-12-04T03:42:26.238Z,22.45
2022-12-04T03:45:09.658Z,17.80
2022-12-04T03:47:46.741Z,20.83
2022-12-04T03:50:26.613Z,24.92
2022-12-04T03:53:12.456Z,22.15
2022-12-04T03:56:05.167Z,17.08
2022-12-04T03:58:33.845Z,18.45
2022-12-04T04:01:03.973Z,23.40
2022-12-04T04:03:37.213Z,20.33
2022-12-04T04:06:13.743Z,20.92
2022-12-04T04:08:42.457Z,23.08
2022-12-04T04:11:19.409Z,22.05
2022-12-04T04:14:13.134Z,24.38
2022-12-04T04:17:03.382Z,25.15
2022-12-04T04:19:51.798Z,22.13
2022-12-04T04:22:38.235Z,22.73
2022-12-04T04:25:11.686Z,18.80
2022-12-04T04:27:38.494Z,25.02
2022-12-04T04:30:07.135Z,26.45
2022-12-04T04:33:09.349Z,25.35
2022-12-04T04:35:38.916Z,27.05
2022-12-04T04:38:12.665Z,25.52
2022-12-04T04:40:57.244Z,21.58
2022-12-04T04:43:56.519Z,22.02
2022-12-04T04:46:32.656Z,24.17
2022-12-04T04:49:03.258Z,21.05
2022-12-04T04:51:31.554Z,26.55
2022-12-04T04:54:00.173Z,21.77
2022-12-04T04:56:27.217Z,22.92
2022-12-04T04:58:54.096Z,25.23
2022-12-04T05:01:23.889Z,20.70
2022-12-04T05:03:50.744Z,20.77
2022-12-04T05:06:17.579Z,25.10
2022-12-04T05:08:44.440Z,18.85
2022-12-04T05:11:13.621Z,16.85
2022-12-04T05:13:41.029Z,20.52
2022-12-04T05:16:11.046Z,27.08
2022-12-04T05:18:38.094Z,21.02
2022-12-04T05:21:09.574Z,19.92
2022-12-04T05:23:36.388Z,26.17
2022-12-04T05:26:04.546Z,22.92
2022-12-04T05:28:31.526Z,19.55
2022-12-04T05:31:01.194Z,18.88
2022-12-04T05:33:28.399Z,18.90
2022-12-04T05:36:03.495Z,17.55
2022-12-04T05:38:30.889Z,20.38
2022-12-04T05:41:02.299Z,18.52
2022-12-04T05:43:29.520Z,18.67
2022-12-04T05:46:04.262Z,20.00
2022-12-04T05:48:31.401Z,17.80
2022-12-04T05:50:58.324Z,19.55
2022-12-04T05:53:25.321Z,17.17
2022-12-04T05:56:00.667Z,18.00
2022-12-04T05:58:27.923Z,19.42
2022-12-04T06:00:55.160Z,19.33
2022-12-04T06:03:22.716Z,21.60
2022-12-04T06:05:49.592Z,22.08
2022-12-04T06:08:16.548Z,18.42
2022-12-04T06:10:43.441Z,20.95
2022-12-04T06:13:10.253Z,20.27
2022-12-04T06:15:41.424Z,18.48
2022-12-04T06:18:08.548Z,15.80
2022-12-04T06:20:35.748Z,19.98
2022-12-04T06:23:02.651Z,18.73
2022-12-04T06:25:29.546Z,16.45
2022-12-04T06:27:56.432Z,17.05
2022-12-04T06:30:23.502Z,20.15
2022-12-04T06:32:50.388Z,17.02
2022-12-04T06:35:17.207Z,18.40
2022-12-04T06:37:43.987Z,17.83
2022-12-04T06:40:11.153Z,18.85
2022-12-04T06:42:38.016Z,21.80
2022-12-04T06:45:05.500Z,19.35
2022-12-04T06:47:33.986Z,22.75
2022-12-04T06:50:01.111Z,18.02
2022-12-04T06:52:27.918Z,19.05
2022-12-04T06:54:54.757Z,16.83
2022-12-04T06:57:21.826Z,21.05
2022-12-04T06:59:48.875Z,20.85
2022-12-04T07:02:15.738Z,21.05
2022-12-04T07:04:42.684Z,21.15
2022-12-04T07:07:10.245Z,19.08
2022-12-04T07:09:37.141Z,20.38
2022-12-04T07:12:04.231Z,18.48
2022-12-04T07:14:31.153Z,21.58
2022-12-04T07:16:58.602Z,18.85
2022-12-04T07:19:25.533Z,16.75
2022-12-04T07:21:52.345Z,21.50
2022-12-04T07:24:19.391Z,20.83
2022-12-04T07:26:46.291Z,17.42
2022-12-04T07:29:13.667Z,18.25
2022-12-04T07:31:40.622Z,20.50
2022-12-04T07:34:07.934Z,19.83
2022-12-04T07:36:34.812Z,21.13
2022-12-04T07:39:01.789Z,22.25
2022-12-04T07:41:28.608Z,20.33
2022-12-04T07:43:55.527Z,20.90
2022-12-04T07:46:25.019Z,23.40
2022-12-04T07:48:52.031Z,19.00
2022-12-04T07:51:21.536Z,20.10
2022-12-04T07:53:49.606Z,21.73
2022-12-04T07:56:16.930Z,21.23
2022-12-04T07:58:44.261Z,23.88
2022-12-04T08:01:16.216Z,20.95
2022-12-04T08:03:48.007Z,22.13
2022-12-04T08:06:17.182Z,19.25
2022-12-04T08:08:44.141Z,22.60
2022-12-04T08:11:13.600Z,25.15
2022-12-04T08:13:40.436Z,22.90
2022-12-04T08:16:08.622Z,25.88
2022-12-04T08:18:35.712Z,19.17
2022-12-04T08:21:07.522Z,21.77
2022-12-04T08:23:36.853Z,22.48
2022-12-04T08:26:04.776Z,19.55
2022-12-04T08:28:32.167Z,18.20
2022-12-04T08:31:29.161Z,23.50
2022-12-04T08:33:58.350Z,24.13
2022-12-04T08:36:25.983Z,23.38
2022-12-04T08:38:53.083Z,22.52
2022-12-04T08:41:21.541Z,20.75
2022-12-04T08:43:48.440Z,22.40
2022-12-04T08:46:17.062Z,21.13
2022-12-04T08:48:44.417Z,26.40
2022-12-04T08:51:20.441Z,23.27
2022-12-04T08:53:47.455Z,25.63
2022-12-04T08:56:14.710Z,25.60
2022-12-04T08:58:41.582Z,27.02
2022-12-04T09:01:11.249Z,22.75
2022-12-04T09:03:38.684Z,22.17
2022-12-04T09:06:07.035Z,25.63
2022-12-04T09:08:34.900Z,24.50
2022-12-04T09:11:06.399Z,25.73
2022-12-04T09:13:33.846Z,22.40
2022-12-04T09:16:03.320Z,24.08
2022-12-04T09:18:30.279Z,25.67
2022-12-04T09:21:01.687Z,20.08
2022-12-04T09:23:29.322Z,23.40
2022-12-04T09:25:56.158Z,31.65
2022-12-04T09:28:23.028Z,37.78
2022-12-04T09:31:03.762Z,26.33
2022-12-04T09:33:31.032Z,32.30
2022-12-04T09:36:01.995Z,24.05
2022-12-04T09:42:14.278Z,23.98
2022-12-04T09:44:44.445Z,22.42
2022-12-04T09:47:20.225Z,23.13
2022-12-04T09:50:11.646Z,26.52
2022-12-04T09:52:56.239Z,25.15
2022-12-04T09:55:28.065Z,20.98
2022-12-04T09:58:01.831Z,21.45
2022-12-04T10:00:30.396Z,22.30
2022-12-04T10:03:03.905Z,22.95
2022-12-04T10:05:36.279Z,22.55
2022-12-04T10:08:05.844Z,26.30
2022-12-04T10:10:41.028Z,26.02
2022-12-04T10:13:38.458Z,22.88
2022-12-04T10:16:18.101Z,23.40
2022-12-04T10:18:54.057Z,26.13
2022-12-04T10:21:26.694Z,21.98
2022-12-04T10:24:13.147Z,23.75
2022-12-04T10:26:45.457Z,22.00
2022-12-04T10:29:16.820Z,24.40
2022-12-04T10:31:45.412Z,25.02
2022-12-04T10:34:18.360Z,22.55
2022-12-04T10:39:18.648Z,21.02
2022-12-04T10:42:14.427Z,20.20
2022-12-04T10:44:41.312Z,24.23
2022-12-04T10:47:11.207Z,23.65
2022-12-04T10:49:38.761Z,24.05
2022-12-04T10:52:11.174Z,22.17
2022-12-04T10:54:57.741Z,21.20
2022-12-04T10:57:35.765Z,20.00
2022-12-04T11:00:04.534Z,19.92
2022-12-04T11:02:34.860Z,23.30
2022-12-04T11:05:08.751Z,25.65
2022-12-04T11:07:43.289Z,26.55
2022-12-04T11:10:25.124Z,21.23
2022-12-04T11:13:03.910Z,22.75
2022-12-04T11:15:31.147Z,18.25
2022-12-04T11:18:15.848Z,22.65
2022-12-04T11:20:52.445Z,20.83
2022-12-04T11:23:20.078Z,23.60
2022-12-04T11:25:50.113Z,21.95
2022-12-04T11:28:40.521Z,25.58
2022-12-04T11:31:09.279Z,21.10
2022-12-04T11:33:37.910Z,25.23
2022-12-04T11:36:24.300Z,25.08
2022-12-04T11:39:03.839Z,24.77
2022-12-04T11:41:32.432Z,24.85
2022-12-04T11:44:00.901Z,41.03
2022-12-04T11:46:32.157Z,82.50
2022-12-04T11:48:59.348Z,26.95
2022-12-04T11:52:03.931Z,39.70
2022-12-04T11:54:30.769Z,27.70
2022-12-04T11:57:13.220Z,27.35
2022-12-04T11:59:57.502Z,32.90
2022-12-04T12:02:53.464Z,27.98
2022-12-04T12:05:49.310Z,25.45
2022-12-04T12:08:53.753Z,24.65
2022-12-04T12:11:41.415Z,25.70
2022-12-04T12:14:34.754Z,29.58
2022-12-04T12:17:16.551Z,25.83
2022-12-04T12:19:55.848Z,28.35
2022-12-04T12:23:15.406Z,22.55
2022-12-04T12:26:01.571Z,21.20
2022-12-04T12:28:34.190Z,26.77
2022-12-04T12:31:35.814Z,60.67
2022-12-04T12:34:37.295Z,27.30
2022-12-04T12:37:17.961Z,26.95
2022-12-04T12:40:14.437Z,22.70
2022-12-04T12:43:06.510Z,23.48
2022-12-04T12:45:36.488Z,24.15
2022-12-04T12:48:16.646Z,28.33
2022-12-04T12:51:08.961Z,23.95
2022-12-04T12:53:40.272Z,20.73
2022-12-04T12:56:12.829Z,23.02
2022-12-04T12:58:47.536Z,20.60
2022-12-04T13:01:40.353Z,21.73
2022-12-04T13:04:20.882Z,22.42
2022-12-04T13:06:53.608Z,20.25
2022-12-04T13:09:33.028Z,21.80
2022-12-04T13:12:03.735Z,22.75
2022-12-04T13:14:30.626Z,23.20
2022-12-04T13:16:59.126Z,23.20
2022-12-04T13:19:33.397Z,22.50
2022-12-04T13:22:24.455Z,19.55
2022-12-04T13:25:22.821Z,22.65
2022-12-04T13:28:11.201Z,27.27
2022-12-04T13:31:07.493Z,24.35
2022-12-04T13:33:55.667Z,27.55
2022-12-04T13:36:56.396Z,21.33
2022-12-04T13:39:57.488Z,28.55
2022-12-04T13:42:26.523Z,28.05
2022-12-04T13:44:58.973Z,21.92
2022-12-04T13:47:31.885Z,21.27
2022-12-04T13:50:09.720Z,25.00
2022-12-04T13:52:40.904Z,26.38
2022-12-04T13:55:35.618Z,25.05
2022-12-04T13:58:11.301Z,25.58
2022-12-04T14:00:42.490Z,24.00
2022-12-04T14:03:30.698Z,27.92
2022-12-04T14:06:00.051Z,30.08
2022-12-04T14:08:29.718Z,31.23
2022-12-04T14:11:02.981Z,25.83
2022-12-04T14:13:56.475Z,29.40
2022-12-04T14:16:39.293Z,25.88
2022-12-04T14:19:07.211Z,25.50
2022-12-04T14:21:45.303Z,25.88
2022-12-04T14:24:29.883Z,26.77
2022-12-04T14:27:11.123Z,27.75
2022-12-04T14:29:51.300Z,31.67
2022-12-04T14:32:28.990Z,26.33
2022-12-04T14:34:57.065Z,29.80
2022-12-04T14:37:47.410Z,25.77
2022-12-04T14:40:30.353Z,26.45
2022-12-04T14:42:57.401Z,20.77
2022-12-04T14:45:36.948Z,25.00
2022-12-04T14:48:08.001Z,26.15
2022-12-04T14:50:46.064Z,25.02
2022-12-04T14:53:21.993Z,25.55
2022-12-04T14:56:14.158Z,26.23
2022-12-04T14:58:41.533Z,24.85
2022-12-04T15:01:36.927Z,22.00
2022-12-04T15:04:14.313Z,23.67
2022-12-04T15:06:41.221Z,25.55
2022-12-04T15:09:39.141Z,23.80
2022-12-04T15:12:35.145Z,24.75
2022-12-04T15:15:28.105Z,22.08
2022-12-04T15:18:00.095Z,27.35
2022-12-04T15:20:29.907Z,24.80
2022-12-04T15:22:58.996Z,23.75
2022-12-04T15:25:28.954Z,24.63
2022-12-04T15:28:11.984Z,25.40
2022-12-04T15:30:39.966Z,27.23
2022-12-04T15:33:07.036Z,22.48
2022-12-04T15:35:34.938Z,24.95
2022-12-04T15:38:02.025Z,24.23
2022-12-04T15:40:30.047Z,17.73
2022-12-04T15:43:14.744Z,21.33
2022-12-04T15:45:41.857Z,24.15
2022-12-04T15:48:09.101Z,28.83
2022-12-04T15:50:36.054Z,26.98
2022-12-04T15:53:05.684Z,26.30
2022-12-04T15:55:50.609Z,24.38
2022-12-04T15:58:24.473Z,26.02
2022-12-04T16:01:15.559Z,28.65
2022-12-04T16:03:42.438Z,24.52
2022-12-04T16:06:19.068Z,25.58
2022-12-04T16:08:48.447Z,24.13
2022-12-04T16:11:18.559Z,28.55
2022-12-04T16:13:45.418Z,25.20
2022-12-04T16:16:15.683Z,25.67
2022-12-04T16:18:43.535Z,25.08
2022-12-04T16:21:18.077Z,28.17
2022-12-04T16:23:45.567Z,29.15
2022-12-04T16:26:17.600Z,31.35
2022-12-04T16:28:44.982Z,25.90
2022-12-04T16:31:15.379Z,29.33
2022-12-04T16:33:42.241Z,24.30
2022-12-04T16:36:11.620Z,24.67
2022-12-04T16:38:38.581Z,27.63
2022-12-04T16:41:06.007Z,25.70
2022-12-04T16:43:32.864Z,28.48
2022-12-04T16:46:01.252Z,27.73
2022-12-04T16:48:29.678Z,24.30
2022-12-04T16:50:56.608Z,28.30
2022-12-04T16:53:23.587Z,28.60
2022-12-04T16:55:52.567Z,28.90
2022-12-04T16:58:20.532Z,28.25
2022-12-04T17:00:55.536Z,28.98
2022-12-04T17:03:26.800Z,31.63
2022-12-04T17:05:54.164Z,24.63
2022-12-04T17:08:21.599Z,25.45
2022-12-04T17:10:48.598Z,26.10
2022-12-04T17:13:18.364Z,30.92
2022-12-04T17:18:26.526Z,26.48
2022-12-04T17:20:53.434Z,30.25
2022-12-04T17:23:20.286Z,32.22
2022-12-04T17:25:47.696Z,34.38
2022-12-04T17:28:14.608Z,27.88
2022-12-04T17:30:45.121Z,25.05
2022-12-04T17:33:12.094Z,24.73
2022-12-04T17:35:42.766Z,22.75
2022-12-04T17:38:09.750Z,27.92
2022-12-04T17:40:36.861Z,25.02
2022-12-04T17:43:04.421Z,24.63
2022-12-04T17:45:31.395Z,26.83
2022-12-04T17:48:00.464Z,26.17
2022-12-04T17:50:27.285Z,25.25
2022-12-04T17:52:54.106Z,23.67
2022-12-04T17:55:20.955Z,25.38
2022-12-04T17:57:48.306Z,26.02
2022-12-04T18:00:15.353Z,23.65
2022-12-04T18:02:42.589Z,23.13
2022-12-04T18:05:10.258Z,22.20
2022-12-04T18:07:37.353Z,22.88
2022-12-04T18:10:13.473Z,27.17
2022-12-04T18:12:40.595Z,24.13
2022-12-04T18:15:07.785Z,18.55
2022-12-04T18:17:34.731Z,20.92
2022-12-04T18:20:04.971Z,20.45
2022-12-04T18:22:32.579Z,19.23
2022-12-04T18:25:00.625Z,23.40
2022-12-04T18:27:27.564Z,18.88
2022-12-04T18:29:54.675Z,23.98
2022-12-04T18:32:21.786Z,26.58
2022-12-04T18:34:48.667Z,24.92
2022-12-04T18:37:15.546Z,21.13
2022-12-04T18:39:42.450Z,26.50
2022-12-04T18:42:09.372Z,22.23
2022-12-04T18:44:36.177Z,23.48
2022-12-04T18:47:03.089Z,22.23
2022-12-04T18:49:30.851Z,22.40
2022-12-04T18:51:59.303Z,39.40
2022-12-04T18:54:26.190Z,25.08
2022-12-04T18:56:53.103Z,23.13
2022-12-04T18:59:25.200Z,22.17
2022-12-04T19:01:53.354Z,18.53
2022-12-04T19:04:22.136Z,22.63
2022-12-04T19:06:52.093Z,31.02
2022-12-04T19:09:35.447Z,24.60
2022-12-04T19:12:09.403Z,25.00
2022-12-04T19:14:37.880Z,26.98
2022-12-04T19:17:04.856Z,25.35
2022-12-04T19:19:32.050Z,27.85
2022-12-04T19:21:59.309Z,24.40
2022-12-04T19:24:26.119Z,23.02
2022-12-04T19:26:53.791Z,21.17
2022-12-04T19:29:20.701Z,24.33
2022-12-04T19:31:47.628Z,26.45
2022-12-04T19:34:14.635Z,23.20
2022-12-04T19:36:42.687Z,25.58
2022-12-04T19:39:10.481Z,27.65
2022-12-04T19:41:38.666Z,26.73
2022-12-04T19:44:26.428Z,24.58
2022-12-04T19:46:52.898Z,23.35
2022-12-04T19:49:19.792Z,24.25
2022-12-04T19:51:47.713Z,25.00
2022-12-04T19:54:15.378Z,24.30
2022-12-04T19:56:45.560Z,25.00
2022-12-04T19:59:13.244Z,27.95
2022-12-04T20:01:40.122Z,25.33
2022-12-04T20:04:08.849Z,27.33
2022-12-04T20:06:41.195Z,33.45
2022-12-04T20:09:10.309Z,30.00
2022-12-04T20:11:37.718Z,31.15
2022-12-04T20:14:05.846Z,33.67
2022-12-04T20:16:34.176Z,30.83
2022-12-04T20:19:03.680Z,37.88
2022-12-04T20:21:31.996Z,25.75
2022-12-04T20:24:02.227Z,30.73
2022-12-04T20:26:32.304Z,36.92
2022-12-04T20:29:00.722Z,35.28
2022-12-04T20:31:30.171Z,34.15
2022-12-04T20:33:58.780Z,35.13
2022-12-04T20:36:27.238Z,34.30
2022-12-04T20:38:55.681Z,32.83
2022-12-04T20:41:22.513Z,34.83
2022-12-04T20:43:49.613Z,30.90
2022-12-04T20:46:18.932Z,40.10
2022-12-04T20:48:49.873Z,30.92
2022-12-04T20:51:21.925Z,30.60
2022-12-04T20:53:51.160Z,33.00
2022-12-04T20:56:19.190Z,34.40
2022-12-04T20:58:46.114Z,34.22
2022-12-04T21:01:16.160Z,34.50
2022-12-04T21:03:43.582Z,29.60
2022-12-04T21:06:19.780Z,32.63
2022-12-04T21:08:53.678Z,37.40
2022-12-04T21:11:25.601Z,34.15
2022-12-04T21:14:11.866Z,34.83
2022-12-04T21:16:39.004Z,37.08
2022-12-04T21:19:08.121Z,37.88
2022-12-04T21:21:38.475Z,38.00
2022-12-04T21:24:10.753Z,35.30
2022-12-04T21:26:37.684Z,33.00
2022-12-04T21:29:05.518Z,38.03
2022-12-04T21:31:32.584Z,35.47
2022-12-04T21:34:01.234Z,36.22
2022-12-04T21:36:28.815Z,33.00
2022-12-04T21:38:56.253Z,42.10
2022-12-04T21:41:42.436Z,33.13
2022-12-04T21:44:14.929Z,35.92
2022-12-04T21:46:42.160Z,38.30
2022-12-04T21:49:09.325Z,41.13
2022-12-04T21:54:23.390Z,44.50
2022-12-04T21:56:50.218Z,37.35
2022-12-04T21:59:17.152Z,35.05
2022-12-04T22:01:44.534Z,37.85
2022-12-04T22:04:11.642Z,34.17
2022-12-04T22:06:38.715Z,35.28
2022-12-04T22:09:10.675Z,42.85
2022-12-04T22:11:38.655Z,40.78
2022-12-04T22:14:05.849Z,40.28
2022-12-04T22:16:36.930Z,36.20
2022-12-04T22:19:06.797Z,39.10
2022-12-04T22:21:34.796Z,36.65
2022-12-04T22:24:02.855Z,39.42
2022-12-04T22:26:30.456Z,41.85
2022-12-04T22:28:57.883Z,38.20
2022-12-04T22:31:29.411Z,40.97
2022-12-04T22:33:58.134Z,42.53
2022-12-04T22:36:27.915Z,40.05
2022-12-04T22:39:11.070Z,43.88
2022-12-04T22:41:38.440Z,46.90
2022-12-04T22:44:05.800Z,45.25
2022-12-04T22:46:33.079Z,49.85
2022-12-04T22:49:00.331Z,48.75
2022-12-04T22:51:27.929Z,45.25
2022-12-04T22:53:57.229Z,45.55
2022-12-04T22:56:26.847Z,44.65
2022-12-04T22:58:54.273Z,44.95
2022-12-04T23:01:26.762Z,47.50
2022-12-04T23:03:54.075Z,48.90
2022-12-04T23:06:22.677Z,43.75
2022-12-04T23:08:53.521Z,46.38
2022-12-04T23:11:21.292Z,40.17
2022-12-04T23:13:56.502Z,42.45
2022-12-04T23:16:24.706Z,49.42
2022-12-04T23:18:52.211Z,50.47
2022-12-04T23:21:20.312Z,44.42
2022-12-04T23:23:48.528Z,46.15
2022-12-04T23:26:18.393Z,48.28
2022-12-04T23:28:45.321Z,50.38
2022-12-04T23:31:12.875Z,46.60
2022-12-04T23:33:40.685Z,46.97
2022-12-04T23:36:09.238Z,48.83
2022-12-04T23:38:38.090Z,45.20
2022-12-04T23:41:29.636Z,47.75
2022-12-04T23:43:56.991Z,50.00
2022-12-04T23:46:32.490Z,45.03
2022-12-04T23:49:00.363Z,51.88
2022-12-04T23:51:27.622Z,42.78
2022-12-04T23:53:54.737Z,45.25
2022-12-04T23:56:26.904Z,47.38
2022-12-04T23:58:55.889Z,46.22
